sensor_id;sensor_type;location;lat;lon;timestamp;temperature;humidity
67870;DHT22;54673;52.262;6.830;2023-05-08T00:01:30;21.60;53.10
67870;DHT22;54673;52.262;6.830;2023-05-08T00:03:56;21.60;53.10
67870;DHT22;54673;52.262;6.830;2023-05-08T00:06:22;21.60;53.00
67870;DHT22;54673;52.262;6.830;2023-05-08T00:08:47;21.60;53.00
67870;DHT22;54673;52.262;6.830;2023-05-08T00:11:13;21.30;52.90
67870;DHT22;54673;52.262;6.830;2023-05-08T00:13:38;21.60;53.00
67870;DHT22;54673;52.262;6.830;2023-05-08T00:16:06;21.50;53.00
67870;DHT22;54673;52.262;6.830;2023-05-08T00:18:34;21.50;52.90
67870;DHT22;54673;52.262;6.830;2023-05-08T00:21:00;21.50;52.90
67870;DHT22;54673;52.262;6.830;2023-05-08T00:23:25;21.50;52.90
67870;DHT22;54673;52.262;6.830;2023-05-08T00:25:51;21.50;52.80
67870;DHT22;54673;52.262;6.830;2023-05-08T00:28:16;21.50;52.80
67870;DHT22;54673;52.262;6.830;2023-05-08T00:30:42;21.60;52.80
67870;DHT22;54673;52.262;6.830;2023-05-08T00:33:08;21.50;52.80
67870;DHT22;54673;52.262;6.830;2023-05-08T00:35:33;21.50;52.70
67870;DHT22;54673;52.262;6.830;2023-05-08T00:37:59;21.50;52.70
67870;DHT22;54673;52.262;6.830;2023-05-08T00:40:25;21.50;52.60
67870;DHT22;54673;52.262;6.830;2023-05-08T00:42:51;21.50;52.70
67870;DHT22;54673;52.262;6.830;2023-05-08T00:45:17;21.50;52.60
67870;DHT22;54673;52.262;6.830;2023-05-08T00:47:43;21.50;52.60
67870;DHT22;54673;52.262;6.830;2023-05-08T00:50:09;21.50;52.60
67870;DHT22;54673;52.262;6.830;2023-05-08T00:52:35;21.50;52.50
67870;DHT22;54673;52.262;6.830;2023-05-08T00:55:02;21.50;52.50
67870;DHT22;54673;52.262;6.830;2023-05-08T00:57:31;21.50;52.50
67870;DHT22;54673;52.262;6.830;2023-05-08T01:00:00;21.50;52.50
67870;DHT22;54673;52.262;6.830;2023-05-08T01:02:26;21.50;52.50
67870;DHT22;54673;52.262;6.830;2023-05-08T01:04:52;21.50;52.50
67870;DHT22;54673;52.262;6.830;2023-05-08T01:07:20;21.50;52.40
67870;DHT22;54673;52.262;6.830;2023-05-08T01:09:46;21.50;52.30
67870;DHT22;54673;52.262;6.830;2023-05-08T01:15:14;21.50;52.30
67870;DHT22;54673;52.262;6.830;2023-05-08T01:27:09;21.50;52.10
67870;DHT22;54673;52.262;6.830;2023-05-08T01:32:25;21.40;52.10
67870;DHT22;54673;52.262;6.830;2023-05-08T01:35:25;21.40;52.10
67870;DHT22;54673;52.262;6.830;2023-05-08T01:38:12;21.40;52.10
67870;DHT22;54673;52.262;6.830;2023-05-08T01:43:29;21.40;52.00
67870;DHT22;54673;52.262;6.830;2023-05-08T01:45:56;21.40;52.00
67870;DHT22;54673;52.262;6.830;2023-05-08T01:48:29;21.40;52.00
67870;DHT22;54673;52.262;6.830;2023-05-08T01:51:04;21.40;52.00
67870;DHT22;54673;52.262;6.830;2023-05-08T01:53:41;21.40;52.00
67870;DHT22;54673;52.262;6.830;2023-05-08T01:56:12;21.40;52.00
67870;DHT22;54673;52.262;6.830;2023-05-08T01:58:38;21.40;51.90
67870;DHT22;54673;52.262;6.830;2023-05-08T02:01:07;21.40;51.90
67870;DHT22;54673;52.262;6.830;2023-05-08T02:03:34;21.40;51.90
67870;DHT22;54673;52.262;6.830;2023-05-08T02:06:01;21.40;51.90
67870;DHT22;54673;52.262;6.830;2023-05-08T02:08:28;21.40;51.90
67870;DHT22;54673;52.262;6.830;2023-05-08T02:10:56;21.40;51.90
67870;DHT22;54673;52.262;6.830;2023-05-08T02:13:24;21.40;51.90
67870;DHT22;54673;52.262;6.830;2023-05-08T02:15:52;21.40;51.90
67870;DHT22;54673;52.262;6.830;2023-05-08T02:18:19;21.40;51.80
67870;DHT22;54673;52.262;6.830;2023-05-08T02:20:48;21.40;51.80
67870;DHT22;54673;52.262;6.830;2023-05-08T02:23:15;21.40;51.80
67870;DHT22;54673;52.262;6.830;2023-05-08T02:25:42;21.40;51.80
67870;DHT22;54673;52.262;6.830;2023-05-08T02:28:09;21.40;51.80
67870;DHT22;54673;52.262;6.830;2023-05-08T02:30:35;21.40;51.80
67870;DHT22;54673;52.262;6.830;2023-05-08T02:33:02;21.30;51.60
67870;DHT22;54673;52.262;6.830;2023-05-08T02:35:30;21.30;51.50
67870;DHT22;54673;52.262;6.830;2023-05-08T02:37:56;21.30;51.60
67870;DHT22;54673;52.262;6.830;2023-05-08T02:40:25;21.30;51.50
67870;DHT22;54673;52.262;6.830;2023-05-08T02:42:52;21.30;51.60
67870;DHT22;54673;52.262;6.830;2023-05-08T02:45:18;21.30;51.50
67870;DHT22;54673;52.262;6.830;2023-05-08T02:47:58;21.30;51.50
67870;DHT22;54673;52.262;6.830;2023-05-08T02:53:08;21.30;51.40
67870;DHT22;54673;52.262;6.830;2023-05-08T02:55:42;21.30;51.40
67870;DHT22;54673;52.262;6.830;2023-05-08T02:58:30;21.30;51.30
67870;DHT22;54673;52.262;6.830;2023-05-08T03:01:04;21.30;51.30
67870;DHT22;54673;52.262;6.830;2023-05-08T03:03:32;21.30;51.20
67870;DHT22;54673;52.262;6.830;2023-05-08T03:06:02;21.30;51.20
67870;DHT22;54673;52.262;6.830;2023-05-08T03:08:34;21.30;51.20
67870;DHT22;54673;52.262;6.830;2023-05-08T03:11:08;21.30;51.30
67870;DHT22;54673;52.262;6.830;2023-05-08T03:13:37;21.30;51.20
67870;DHT22;54673;52.262;6.830;2023-05-08T03:16:05;21.30;51.20
67870;DHT22;54673;52.262;6.830;2023-05-08T03:18:42;21.30;51.20
67870;DHT22;54673;52.262;6.830;2023-05-08T03:21:10;21.30;51.20
67870;DHT22;54673;52.262;6.830;2023-05-08T03:23:38;21.30;51.80
67870;DHT22;54673;52.262;6.830;2023-05-08T03:26:05;21.30;51.30
67870;DHT22;54673;52.262;6.830;2023-05-08T03:28:31;21.20;51.10
67870;DHT22;54673;52.262;6.830;2023-05-08T03:30:58;21.30;51.10
67870;DHT22;54673;52.262;6.830;2023-05-08T03:33:25;21.20;51.10
67870;DHT22;54673;52.262;6.830;2023-05-08T03:35:52;21.20;51.10
67870;DHT22;54673;52.262;6.830;2023-05-08T03:38:18;21.30;51.10
67870;DHT22;54673;52.262;6.830;2023-05-08T03:40:44;21.30;51.10
67870;DHT22;54673;52.262;6.830;2023-05-08T03:43:10;21.20;51.00
67870;DHT22;54673;52.262;6.830;2023-05-08T03:45:38;21.20;50.90
67870;DHT22;54673;52.262;6.830;2023-05-08T03:48:06;21.20;50.90
67870;DHT22;54673;52.262;6.830;2023-05-08T03:50:34;21.20;50.90
67870;DHT22;54673;52.262;6.830;2023-05-08T03:53:00;21.20;50.90
67870;DHT22;54673;52.262;6.830;2023-05-08T03:55:25;21.20;50.90
67870;DHT22;54673;52.262;6.830;2023-05-08T03:58:09;21.20;50.80
67870;DHT22;54673;52.262;6.830;2023-05-08T04:01:09;21.20;50.90
67870;DHT22;54673;52.262;6.830;2023-05-08T04:04:09;21.20;50.80
67870;DHT22;54673;52.262;6.830;2023-05-08T04:06:36;21.20;50.90
67870;DHT22;54673;52.262;6.830;2023-05-08T04:09:19;21.20;50.80
67870;DHT22;54673;52.262;6.830;2023-05-08T04:14:30;21.20;50.80
67870;DHT22;54673;52.262;6.830;2023-05-08T04:17:02;21.20;50.80
67870;DHT22;54673;52.262;6.830;2023-05-08T04:19:33;21.20;50.70
67870;DHT22;54673;52.262;6.830;2023-05-08T04:22:06;21.20;50.80
67870;DHT22;54673;52.262;6.830;2023-05-08T04:24:34;21.20;50.70
67870;DHT22;54673;52.262;6.830;2023-05-08T04:27:02;21.20;50.70
67870;DHT22;54673;52.262;6.830;2023-05-08T04:29:29;21.20;50.60
67870;DHT22;54673;52.262;6.830;2023-05-08T04:31:55;21.20;50.60
67870;DHT22;54673;52.262;6.830;2023-05-08T04:34:22;21.10;50.50
67870;DHT22;54673;52.262;6.830;2023-05-08T04:36:47;21.20;50.60
67870;DHT22;54673;52.262;6.830;2023-05-08T04:39:13;21.10;50.40
67870;DHT22;54673;52.262;6.830;2023-05-08T04:41:39;21.10;50.50
67870;DHT22;54673;52.262;6.830;2023-05-08T04:44:05;21.20;50.60
67870;DHT22;54673;52.262;6.830;2023-05-08T04:46:30;21.30;50.60
67870;DHT22;54673;52.262;6.830;2023-05-08T04:48:56;21.10;50.40
67870;DHT22;54673;52.262;6.830;2023-05-08T04:51:21;21.10;50.30
67870;DHT22;54673;52.262;6.830;2023-05-08T04:53:47;21.10;50.40
67870;DHT22;54673;52.262;6.830;2023-05-08T04:56:12;21.10;50.30
67870;DHT22;54673;52.262;6.830;2023-05-08T04:58:38;21.20;50.30
67870;DHT22;54673;52.262;6.830;2023-05-08T05:01:04;21.10;50.20
67870;DHT22;54673;52.262;6.830;2023-05-08T05:03:29;21.10;50.20
67870;DHT22;54673;52.262;6.830;2023-05-08T05:05:59;21.10;50.20
67870;DHT22;54673;52.262;6.830;2023-05-08T05:08:25;21.10;50.20
67870;DHT22;54673;52.262;6.830;2023-05-08T05:10:51;21.10;50.20
67870;DHT22;54673;52.262;6.830;2023-05-08T05:13:16;21.10;50.10
67870;DHT22;54673;52.262;6.830;2023-05-08T05:15:42;21.10;50.10
67870;DHT22;54673;52.262;6.830;2023-05-08T05:18:08;21.10;50.10
67870;DHT22;54673;52.262;6.830;2023-05-08T05:20:33;21.10;50.10
67870;DHT22;54673;52.262;6.830;2023-05-08T05:22:59;21.10;50.10
67870;DHT22;54673;52.262;6.830;2023-05-08T05:25:24;21.10;50.00
67870;DHT22;54673;52.262;6.830;2023-05-08T05:27:50;21.10;50.10
67870;DHT22;54673;52.262;6.830;2023-05-08T05:30:16;21.10;50.00
67870;DHT22;54673;52.262;6.830;2023-05-08T05:32:41;21.10;49.90
67870;DHT22;54673;52.262;6.830;2023-05-08T05:35:08;21.10;50.00
67870;DHT22;54673;52.262;6.830;2023-05-08T05:37:34;21.10;49.90
67870;DHT22;54673;52.262;6.830;2023-05-08T05:40:00;21.00;49.90
67870;DHT22;54673;52.262;6.830;2023-05-08T05:42:25;21.00;49.90
67870;DHT22;54673;52.262;6.830;2023-05-08T05:44:51;21.10;49.80
67870;DHT22;54673;52.262;6.830;2023-05-08T05:47:16;21.10;49.80
67870;DHT22;54673;52.262;6.830;2023-05-08T05:49:42;21.00;49.80
67870;DHT22;54673;52.262;6.830;2023-05-08T05:52:11;21.00;49.80
67870;DHT22;54673;52.262;6.830;2023-05-08T05:54:37;21.00;49.70
67870;DHT22;54673;52.262;6.830;2023-05-08T05:57:03;21.00;49.70
67870;DHT22;54673;52.262;6.830;2023-05-08T05:59:28;21.00;49.80
67870;DHT22;54673;52.262;6.830;2023-05-08T06:01:54;21.00;50.00
67870;DHT22;54673;52.262;6.830;2023-05-08T06:04:19;21.00;50.00
67870;DHT22;54673;52.262;6.830;2023-05-08T06:06:45;21.00;50.10
67870;DHT22;54673;52.262;6.830;2023-05-08T06:09:10;21.00;50.20
67870;DHT22;54673;52.262;6.830;2023-05-08T06:11:36;21.00;50.30
67870;DHT22;54673;52.262;6.830;2023-05-08T06:14:01;21.00;50.30
67870;DHT22;54673;52.262;6.830;2023-05-08T06:16:27;21.00;50.40
67870;DHT22;54673;52.262;6.830;2023-05-08T06:18:54;21.10;50.50
67870;DHT22;54673;52.262;6.830;2023-05-08T06:21:20;21.00;50.60
67870;DHT22;54673;52.262;6.830;2023-05-08T06:23:45;20.20;50.10
67870;DHT22;54673;52.262;6.830;2023-05-08T06:26:11;21.10;50.70
67870;DHT22;54673;52.262;6.830;2023-05-08T06:28:36;21.10;50.80
67870;DHT22;54673;52.262;6.830;2023-05-08T06:31:02;21.10;50.70
67870;DHT22;54673;52.262;6.830;2023-05-08T06:33:28;21.00;50.80
67870;DHT22;54673;52.262;6.830;2023-05-08T06:35:54;21.10;50.80
67870;DHT22;54673;52.262;6.830;2023-05-08T06:38:20;21.10;50.90
67870;DHT22;54673;52.262;6.830;2023-05-08T06:40:46;21.00;50.90
67870;DHT22;54673;52.262;6.830;2023-05-08T06:43:12;21.00;50.90
67870;DHT22;54673;52.262;6.830;2023-05-08T06:45:38;21.00;51.00
67870;DHT22;54673;52.262;6.830;2023-05-08T06:48:04;21.00;51.10
67870;DHT22;54673;52.262;6.830;2023-05-08T06:50:30;21.10;51.10
67870;DHT22;54673;52.262;6.830;2023-05-08T06:52:55;21.10;51.20
67870;DHT22;54673;52.262;6.830;2023-05-08T06:55:21;21.00;51.20
67870;DHT22;54673;52.262;6.830;2023-05-08T06:57:47;21.10;51.20
67870;DHT22;54673;52.262;6.830;2023-05-08T07:00:13;21.10;51.10
67870;DHT22;54673;52.262;6.830;2023-05-08T07:02:39;21.10;51.00
67870;DHT22;54673;52.262;6.830;2023-05-08T07:05:05;21.10;51.00
67870;DHT22;54673;52.262;6.830;2023-05-08T07:07:30;21.10;50.90
67870;DHT22;54673;52.262;6.830;2023-05-08T07:09:56;21.10;50.70
67870;DHT22;54673;52.262;6.830;2023-05-08T07:12:22;21.10;50.60
67870;DHT22;54673;52.262;6.830;2023-05-08T07:14:47;21.10;50.50
67870;DHT22;54673;52.262;6.830;2023-05-08T07:17:13;21.10;50.40
67870;DHT22;54673;52.262;6.830;2023-05-08T07:19:39;21.10;50.30
67870;DHT22;54673;52.262;6.830;2023-05-08T07:22:05;21.10;50.10
67870;DHT22;54673;52.262;6.830;2023-05-08T07:24:31;21.10;50.10
67870;DHT22;54673;52.262;6.830;2023-05-08T07:26:56;21.00;50.10
67870;DHT22;54673;52.262;6.830;2023-05-08T07:29:24;21.10;50.10
67870;DHT22;54673;52.262;6.830;2023-05-08T07:31:50;21.00;50.10
67870;DHT22;54673;52.262;6.830;2023-05-08T07:34:16;21.10;50.10
67870;DHT22;54673;52.262;6.830;2023-05-08T07:36:42;21.10;50.10
67870;DHT22;54673;52.262;6.830;2023-05-08T07:39:08;21.10;50.10
67870;DHT22;54673;52.262;6.830;2023-05-08T07:41:33;21.10;50.20
67870;DHT22;54673;52.262;6.830;2023-05-08T07:44:01;21.10;50.10
67870;DHT22;54673;52.262;6.830;2023-05-08T07:46:26;21.10;50.10
67870;DHT22;54673;52.262;6.830;2023-05-08T07:48:52;21.10;50.20
67870;DHT22;54673;52.262;6.830;2023-05-08T07:51:17;21.00;50.20
67870;DHT22;54673;52.262;6.830;2023-05-08T07:53:43;21.10;50.20
67870;DHT22;54673;52.262;6.830;2023-05-08T07:56:09;21.10;50.40
67870;DHT22;54673;52.262;6.830;2023-05-08T07:58:34;21.10;50.40
67870;DHT22;54673;52.262;6.830;2023-05-08T08:01:00;21.10;50.40
67870;DHT22;54673;52.262;6.830;2023-05-08T08:03:26;21.10;50.40
67870;DHT22;54673;52.262;6.830;2023-05-08T08:05:51;21.10;50.50
67870;DHT22;54673;52.262;6.830;2023-05-08T08:08:17;21.10;50.70
67870;DHT22;54673;52.262;6.830;2023-05-08T08:10:42;21.10;50.70
67870;DHT22;54673;52.262;6.830;2023-05-08T08:13:08;21.20;50.90
67870;DHT22;54673;52.262;6.830;2023-05-08T08:15:34;21.10;50.80
67870;DHT22;54673;52.262;6.830;2023-05-08T08:18:00;21.10;51.00
67870;DHT22;54673;52.262;6.830;2023-05-08T08:20:25;21.10;51.00
67870;DHT22;54673;52.262;6.830;2023-05-08T08:22:51;21.10;51.10
67870;DHT22;54673;52.262;6.830;2023-05-08T08:25:18;21.20;51.20
67870;DHT22;54673;52.262;6.830;2023-05-08T08:27:43;21.20;51.40
67870;DHT22;54673;52.262;6.830;2023-05-08T08:30:09;21.20;51.40
67870;DHT22;54673;52.262;6.830;2023-05-08T08:32:34;21.20;51.50
67870;DHT22;54673;52.262;6.830;2023-05-08T08:35:00;21.20;51.70
67870;DHT22;54673;52.262;6.830;2023-05-08T08:37:25;21.10;51.70
67870;DHT22;54673;52.262;6.830;2023-05-08T08:39:51;21.20;51.80
67870;DHT22;54673;52.262;6.830;2023-05-08T08:42:17;21.10;51.80
67870;DHT22;54673;52.262;6.830;2023-05-08T08:44:42;21.10;51.80
67870;DHT22;54673;52.262;6.830;2023-05-08T08:47:10;21.10;51.90
67870;DHT22;54673;52.262;6.830;2023-05-08T08:49:41;21.20;52.00
67870;DHT22;54673;52.262;6.830;2023-05-08T08:52:38;21.20;52.10
67870;DHT22;54673;52.262;6.830;2023-05-08T08:55:02;21.10;52.10
67870;DHT22;54673;52.262;6.830;2023-05-08T08:57:31;21.20;52.30
67870;DHT22;54673;52.262;6.830;2023-05-08T09:00:00;21.20;52.20
67870;DHT22;54673;52.262;6.830;2023-05-08T09:02:28;21.20;52.30
67870;DHT22;54673;52.262;6.830;2023-05-08T09:04:55;21.20;52.20
67870;DHT22;54673;52.262;6.830;2023-05-08T09:07:21;21.20;53.20
67870;DHT22;54673;52.262;6.830;2023-05-08T09:09:48;21.20;52.40
67870;DHT22;54673;52.262;6.830;2023-05-08T09:12:14;21.20;52.50
67870;DHT22;54673;52.262;6.830;2023-05-08T09:14:40;21.20;52.60
67870;DHT22;54673;52.262;6.830;2023-05-08T09:17:06;21.20;52.60
67870;DHT22;54673;52.262;6.830;2023-05-08T09:19:32;21.20;52.70
67870;DHT22;54673;52.262;6.830;2023-05-08T09:21:58;21.30;52.70
67870;DHT22;54673;52.262;6.830;2023-05-08T09:24:25;21.30;52.60
67870;DHT22;54673;52.262;6.830;2023-05-08T09:26:52;21.30;52.70
67870;DHT22;54673;52.262;6.830;2023-05-08T09:29:21;21.30;52.80
67870;DHT22;54673;52.262;6.830;2023-05-08T09:31:48;21.30;52.80
67870;DHT22;54673;52.262;6.830;2023-05-08T09:34:30;21.30;52.80
67870;DHT22;54673;52.262;6.830;2023-05-08T09:39:29;21.20;53.20
67870;DHT22;54673;52.262;6.830;2023-05-08T09:42:07;21.30;53.30
67870;DHT22;54673;52.262;6.830;2023-05-08T09:45:03;21.30;53.40
67870;DHT22;54673;52.262;6.830;2023-05-08T09:47:28;21.30;53.40
67870;DHT22;54673;52.262;6.830;2023-05-08T09:52:29;21.30;53.30
67870;DHT22;54673;52.262;6.830;2023-05-08T09:55:00;21.30;53.30
67870;DHT22;54673;52.262;6.830;2023-05-08T09:57:27;21.30;53.30
67870;DHT22;54673;52.262;6.830;2023-05-08T10:00:07;21.30;53.30
67870;DHT22;54673;52.262;6.830;2023-05-08T10:02:35;21.40;53.40
67870;DHT22;54673;52.262;6.830;2023-05-08T10:05:01;21.40;53.20
67870;DHT22;54673;52.262;6.830;2023-05-08T10:07:28;21.40;53.30
67870;DHT22;54673;52.262;6.830;2023-05-08T10:10:04;21.40;53.40
67870;DHT22;54673;52.262;6.830;2023-05-08T10:12:31;21.40;53.40
67870;DHT22;54673;52.262;6.830;2023-05-08T10:14:57;21.40;53.40
67870;DHT22;54673;52.262;6.830;2023-05-08T10:20:04;21.40;53.30
67870;DHT22;54673;52.262;6.830;2023-05-08T10:22:31;21.40;53.30
67870;DHT22;54673;52.262;6.830;2023-05-08T10:25:02;21.50;53.30
67870;DHT22;54673;52.262;6.830;2023-05-08T10:27:40;21.40;53.30
67870;DHT22;54673;52.262;6.830;2023-05-08T10:30:08;21.50;53.40
67870;DHT22;54673;52.262;6.830;2023-05-08T10:32:37;21.50;53.40
67870;DHT22;54673;52.262;6.830;2023-05-08T10:35:08;21.50;53.70
67870;DHT22;54673;52.262;6.830;2023-05-08T10:37:34;21.50;53.80
67870;DHT22;54673;52.262;6.830;2023-05-08T10:40:02;21.50;53.90
67870;DHT22;54673;52.262;6.830;2023-05-08T10:42:28;21.50;54.00
67870;DHT22;54673;52.262;6.830;2023-05-08T10:44:53;21.50;53.90
67870;DHT22;54673;52.262;6.830;2023-05-08T10:53:12;21.50;54.20
67870;DHT22;54673;52.262;6.830;2023-05-08T10:55:41;21.50;54.00
67870;DHT22;54673;52.262;6.830;2023-05-08T10:58:12;21.60;54.00
67870;DHT22;54673;52.262;6.830;2023-05-08T11:03:27;21.60;54.10
67870;DHT22;54673;52.262;6.830;2023-05-08T11:05:54;21.60;53.90
67870;DHT22;54673;52.262;6.830;2023-05-08T11:08:22;21.60;54.10
67870;DHT22;54673;52.262;6.830;2023-05-08T11:13:33;21.60;54.20
67870;DHT22;54673;52.262;6.830;2023-05-08T11:15:59;21.60;54.40
67870;DHT22;54673;52.262;6.830;2023-05-08T11:18:26;21.70;54.60
67870;DHT22;54673;52.262;6.830;2023-05-08T11:21:03;21.60;54.50
67870;DHT22;54673;52.262;6.830;2023-05-08T11:23:37;21.60;54.50
67870;DHT22;54673;52.262;6.830;2023-05-08T11:26:05;21.60;54.50
67870;DHT22;54673;52.262;6.830;2023-05-08T11:28:36;21.60;54.50
67870;DHT22;54673;52.262;6.830;2023-05-08T11:31:03;21.70;54.50
67870;DHT22;54673;52.262;6.830;2023-05-08T11:33:34;21.70;54.50
67870;DHT22;54673;52.262;6.830;2023-05-08T11:38:37;21.70;54.30
67870;DHT22;54673;52.262;6.830;2023-05-08T11:48:30;21.70;54.60
67870;DHT22;54673;52.262;6.830;2023-05-08T11:50:58;21.70;54.50
67870;DHT22;54673;52.262;6.830;2023-05-08T11:53:24;21.70;54.50
67870;DHT22;54673;52.262;6.830;2023-05-08T11:55:52;21.80;54.60
67870;DHT22;54673;52.262;6.830;2023-05-08T11:58:18;21.70;54.50
67870;DHT22;54673;52.262;6.830;2023-05-08T12:00:45;21.70;54.50
67870;DHT22;54673;52.262;6.830;2023-05-08T12:03:16;21.80;54.60
67870;DHT22;54673;52.262;6.830;2023-05-08T12:05:42;21.70;54.50
67870;DHT22;54673;52.262;6.830;2023-05-08T12:08:09;21.80;55.50
67870;DHT22;54673;52.262;6.830;2023-05-08T12:10:50;21.80;55.50
67870;DHT22;54673;52.262;6.830;2023-05-08T12:15:46;21.80;54.50
67870;DHT22;54673;52.262;6.830;2023-05-08T12:18:12;21.80;54.60
67870;DHT22;54673;52.262;6.830;2023-05-08T12:20:38;21.80;54.60
67870;DHT22;54673;52.262;6.830;2023-05-08T12:23:03;21.80;55.50
67870;DHT22;54673;52.262;6.830;2023-05-08T12:25:29;21.80;54.70
67870;DHT22;54673;52.262;6.830;2023-05-08T12:27:55;21.80;54.70
67870;DHT22;54673;52.262;6.830;2023-05-08T12:30:21;21.80;54.60
67870;DHT22;54673;52.262;6.830;2023-05-08T12:32:47;21.80;54.60
67870;DHT22;54673;52.262;6.830;2023-05-08T12:35:13;21.80;54.60
67870;DHT22;54673;52.262;6.830;2023-05-08T12:37:40;21.80;54.50
67870;DHT22;54673;52.262;6.830;2023-05-08T12:40:06;21.80;54.50
67870;DHT22;54673;52.262;6.830;2023-05-08T12:42:42;21.80;54.50
67870;DHT22;54673;52.262;6.830;2023-05-08T12:45:08;21.80;54.50
67870;DHT22;54673;52.262;6.830;2023-05-08T12:47:33;21.80;54.40
67870;DHT22;54673;52.262;6.830;2023-05-08T12:49:59;21.80;54.50
67870;DHT22;54673;52.262;6.830;2023-05-08T12:52:27;21.80;54.40
67870;DHT22;54673;52.262;6.830;2023-05-08T12:54:53;21.80;54.40
67870;DHT22;54673;52.262;6.830;2023-05-08T12:57:18;21.80;54.30
67870;DHT22;54673;52.262;6.830;2023-05-08T12:59:46;21.80;55.30
67870;DHT22;54673;52.262;6.830;2023-05-08T13:02:14;21.80;54.30
67870;DHT22;54673;52.262;6.830;2023-05-08T13:04:39;21.80;53.70
67870;DHT22;54673;52.262;6.830;2023-05-08T13:07:05;21.80;54.30
67870;DHT22;54673;52.262;6.830;2023-05-08T13:09:31;21.80;54.30
67870;DHT22;54673;52.262;6.830;2023-05-08T13:11:56;21.80;54.20
67870;DHT22;54673;52.262;6.830;2023-05-08T13:14:23;21.90;54.30
67870;DHT22;54673;52.262;6.830;2023-05-08T13:16:48;21.80;54.30
67870;DHT22;54673;52.262;6.830;2023-05-08T13:19:14;21.90;54.30
67870;DHT22;54673;52.262;6.830;2023-05-08T13:21:40;21.80;54.30
67870;DHT22;54673;52.262;6.830;2023-05-08T13:24:06;21.90;54.40
67870;DHT22;54673;52.262;6.830;2023-05-08T13:26:32;21.80;54.50
67870;DHT22;54673;52.262;6.830;2023-05-08T13:28:57;21.80;54.60
67870;DHT22;54673;52.262;6.830;2023-05-08T13:31:23;21.90;54.80
67870;DHT22;54673;52.262;6.830;2023-05-08T13:33:48;21.90;54.90
67870;DHT22;54673;52.262;6.830;2023-05-08T13:36:14;21.90;55.30
67870;DHT22;54673;52.262;6.830;2023-05-08T13:38:39;21.90;55.30
67870;DHT22;54673;52.262;6.830;2023-05-08T13:41:05;21.90;55.30
67870;DHT22;54673;52.262;6.830;2023-05-08T13:43:30;21.90;55.40
67870;DHT22;54673;52.262;6.830;2023-05-08T13:45:56;21.90;55.60
67870;DHT22;54673;52.262;6.830;2023-05-08T13:48:21;21.90;55.50
67870;DHT22;54673;52.262;6.830;2023-05-08T13:50:47;21.90;55.60
67870;DHT22;54673;52.262;6.830;2023-05-08T13:53:13;21.90;55.50
67870;DHT22;54673;52.262;6.830;2023-05-08T13:55:38;21.90;55.50
67870;DHT22;54673;52.262;6.830;2023-05-08T13:58:04;21.90;55.50
67870;DHT22;54673;52.262;6.830;2023-05-08T14:00:29;21.90;55.40
67870;DHT22;54673;52.262;6.830;2023-05-08T14:02:55;22.00;55.40
67870;DHT22;54673;52.262;6.830;2023-05-08T14:05:20;22.00;55.40
67870;DHT22;54673;52.262;6.830;2023-05-08T14:07:46;22.00;55.20
67870;DHT22;54673;52.262;6.830;2023-05-08T14:10:12;22.00;55.30
67870;DHT22;54673;52.262;6.830;2023-05-08T14:12:37;22.00;55.30
67870;DHT22;54673;52.262;6.830;2023-05-08T14:15:04;22.00;55.20
67870;DHT22;54673;52.262;6.830;2023-05-08T14:17:30;22.00;55.10
67870;DHT22;54673;52.262;6.830;2023-05-08T14:19:55;22.00;55.20
67870;DHT22;54673;52.262;6.830;2023-05-08T14:22:21;22.00;55.20
67870;DHT22;54673;52.262;6.830;2023-05-08T14:24:46;22.00;55.20
67870;DHT22;54673;52.262;6.830;2023-05-08T14:27:12;22.00;55.10
67870;DHT22;54673;52.262;6.830;2023-05-08T14:29:37;22.00;55.10
67870;DHT22;54673;52.262;6.830;2023-05-08T14:32:03;22.00;55.00
67870;DHT22;54673;52.262;6.830;2023-05-08T14:34:29;22.00;54.90
67870;DHT22;54673;52.262;6.830;2023-05-08T14:36:55;22.00;54.90
67870;DHT22;54673;52.262;6.830;2023-05-08T14:39:20;22.00;55.00
67870;DHT22;54673;52.262;6.830;2023-05-08T14:41:46;22.00;55.00
67870;DHT22;54673;52.262;6.830;2023-05-08T14:44:12;22.00;54.90
67870;DHT22;54673;52.262;6.830;2023-05-08T14:46:37;22.00;54.80
67870;DHT22;54673;52.262;6.830;2023-05-08T14:49:03;22.00;55.00
67870;DHT22;54673;52.262;6.830;2023-05-08T14:51:28;22.00;54.90
67870;DHT22;54673;52.262;6.830;2023-05-08T14:53:54;21.90;54.90
67870;DHT22;54673;52.262;6.830;2023-05-08T14:56:19;22.00;54.90
67870;DHT22;54673;52.262;6.830;2023-05-08T14:58:49;22.00;54.80
67870;DHT22;54673;52.262;6.830;2023-05-08T15:01:15;22.00;54.90
67870;DHT22;54673;52.262;6.830;2023-05-08T15:03:40;22.00;54.80
67870;DHT22;54673;52.262;6.830;2023-05-08T15:06:06;22.00;54.90
67870;DHT22;54673;52.262;6.830;2023-05-08T15:08:32;22.00;55.00
67870;DHT22;54673;52.262;6.830;2023-05-08T15:10:58;22.00;55.10
67870;DHT22;54673;52.262;6.830;2023-05-08T15:13:23;22.00;55.10
67870;DHT22;54673;52.262;6.830;2023-05-08T15:15:49;22.00;55.10
67870;DHT22;54673;52.262;6.830;2023-05-08T15:18:15;22.00;55.10
67870;DHT22;54673;52.262;6.830;2023-05-08T15:20:40;22.00;55.10
67870;DHT22;54673;52.262;6.830;2023-05-08T15:23:06;22.00;55.10
67870;DHT22;54673;52.262;6.830;2023-05-08T15:25:32;22.00;55.10
67870;DHT22;54673;52.262;6.830;2023-05-08T15:27:57;22.00;55.20
67870;DHT22;54673;52.262;6.830;2023-05-08T15:30:24;22.00;55.30
67870;DHT22;54673;52.262;6.830;2023-05-08T15:32:49;22.00;55.20
67870;DHT22;54673;52.262;6.830;2023-05-08T15:35:15;22.00;55.20
67870;DHT22;54673;52.262;6.830;2023-05-08T15:37:41;22.00;55.30
67870;DHT22;54673;52.262;6.830;2023-05-08T15:40:07;22.00;55.30
67870;DHT22;54673;52.262;6.830;2023-05-08T15:42:33;22.00;55.30
67870;DHT22;54673;52.262;6.830;2023-05-08T15:44:59;22.00;55.30
67870;DHT22;54673;52.262;6.830;2023-05-08T15:47:25;22.00;55.20
67870;DHT22;54673;52.262;6.830;2023-05-08T15:49:54;22.00;55.20
67870;DHT22;54673;52.262;6.830;2023-05-08T15:52:19;22.00;55.20
67870;DHT22;54673;52.262;6.830;2023-05-08T15:54:46;22.00;55.20
67870;DHT22;54673;52.262;6.830;2023-05-08T15:57:12;22.00;55.20
67870;DHT22;54673;52.262;6.830;2023-05-08T15:59:37;22.00;55.20
67870;DHT22;54673;52.262;6.830;2023-05-08T16:02:03;22.00;55.10
67870;DHT22;54673;52.262;6.830;2023-05-08T16:04:29;22.00;55.10
67870;DHT22;54673;52.262;6.830;2023-05-08T16:06:54;22.00;55.10
67870;DHT22;54673;52.262;6.830;2023-05-08T16:09:21;22.00;55.10
67870;DHT22;54673;52.262;6.830;2023-05-08T16:11:47;22.00;55.10
67870;DHT22;54673;52.262;6.830;2023-05-08T16:14:12;22.00;55.10
67870;DHT22;54673;52.262;6.830;2023-05-08T16:16:38;22.10;55.30
67870;DHT22;54673;52.262;6.830;2023-05-08T16:19:04;22.10;56.40
67870;DHT22;54673;52.262;6.830;2023-05-08T16:21:30;22.10;55.50
67870;DHT22;54673;52.262;6.830;2023-05-08T16:23:56;22.10;55.60
67870;DHT22;54673;52.262;6.830;2023-05-08T16:26:22;22.10;55.60